Time;durP1;ratioP1;P1;durP2;ratioP2;P2;SDS_P1;SDS_P2;PMS_P1;PMS_P2;Temp;Humidity;BMP_temperature;BMP_pressure;BME280_temperature;BME280_humidity;BME280_pressure;Samples;Min_cycle;Max_cycle;Signal;HPM_P1;HPM_P2
2021/10/31 00:00:47;;;;;;;28.50;17.10;;;;;;;3.79;74.16;98039.55;116734;1179;58842;-67
2021/10/31 00:03:18;;;;;;;32.50;17.50;;;;;;;3.75;73.81;98038.88;116655;1179;58689;-67
2021/10/31 00:05:47;;;;;;;;;;;;;;;3.72;74.91;98041.83;116748;1179;69777;-67
2021/10/31 00:08:17;;;;;;;31.00;17.30;;;;;;;3.71;75.14;98041.59;116891;1178;67547;-67
2021/10/31 00:10:49;;;;;;;31.60;17.30;;;;;;;3.70;75.41;98046.29;116822;1179;69085;-67
2021/10/31 00:13:18;;;;;;;25.70;16.20;;;;;;;3.67;75.68;98046.41;116635;1179;58736;-68
2021/10/31 00:15:48;;;;;;;32.40;17.50;;;;;;;3.67;76.25;98045.64;116635;1179;58753;-67
2021/10/31 00:18:17;;;;;;;30.40;16.60;;;;;;;3.69;76.10;98047.21;116711;1179;71186;-67
2021/10/31 00:20:46;;;;;;;27.10;16.50;;;;;;;3.74;76.68;98043.17;116823;1179;66979;-67
2021/10/31 00:23:16;;;;;;;27.00;16.00;;;;;;;3.78;76.66;98043.30;116808;1179;69257;-67
2021/10/31 00:25:45;;;;;;;25.10;16.30;;;;;;;3.79;76.14;98041.20;116790;1179;58757;-67
2021/10/31 00:28:15;;;;;;;27.80;18.50;;;;;;;3.77;76.24;98040.09;116781;1179;58734;-67
2021/10/31 00:30:45;;;;;;;27.70;16.60;;;;;;;3.72;76.48;98036.43;116741;1180;70489;-67
2021/10/31 00:33:14;;;;;;;27.40;17.70;;;;;;;3.66;76.62;98032.10;116721;1179;67638;-67
2021/10/31 00:35:45;;;;;;;24.90;16.50;;;;;;;3.56;76.61;98031.61;116741;1179;69717;-67
2021/10/31 00:38:15;;;;;;;25.30;16.70;;;;;;;3.45;76.46;98033.57;116601;1180;58743;-67
2021/10/31 00:40:45;;;;;;;26.70;16.00;;;;;;;3.35;76.63;98031.44;116659;1179;58774;-67
2021/10/31 00:43:14;;;;;;;28.00;16.60;;;;;;;3.23;76.78;98028.29;116823;1179;70001;-67
2021/10/31 00:45:44;;;;;;;22.80;15.10;;;;;;;3.14;75.97;98025.70;116762;1179;67374;-68
2021/10/31 00:48:13;;;;;;;25.50;15.70;;;;;;;3.01;77.13;98020.73;116811;1178;69131;-67
2021/10/31 00:50:48;;;;;;;26.30;16.00;;;;;;;2.91;78.82;98017.91;116699;1179;58747;-67
2021/10/31 00:53:19;;;;;;;25.90;15.20;;;;;;;2.82;77.87;98021.86;116864;1178;58748;-67
2021/10/31 00:55:48;;;;;;;;;;;;;;;2.74;80.06;98022.18;116620;1179;69837;-67
2021/10/31 00:58:18;;;;;;;23.80;14.20;;;;;;;2.68;81.28;98020.93;116814;1179;68362;-67
2021/10/31 01:00:49;;;;;;;24.80;16.20;;;;;;;2.62;79.44;98021.02;116785;1179;68446;-67
2021/10/31 01:03:18;;;;;;;32.00;16.60;;;;;;;2.60;79.25;98018.73;116748;1179;59010;-67
2021/10/31 01:05:54;;;;;;;27.20;16.30;;;;;;;2.61;79.16;98016.09;116763;1179;58828;-67
2021/10/31 01:08:45;;;;;;;25.00;14.80;;;;;;;2.58;80.19;98014.73;116714;1179;70580;-67
2021/10/31 01:11:14;;;;;;;;;;;;;;;2.53;80.85;98013.03;116785;1179;67724;-67
2021/10/31 01:14:21;;;;;;;25.10;15.10;;;;;;;2.49;80.12;98012.11;116748;1171;69288;-67
2021/10/31 01:17:28;;;;;;;27.70;16.60;;;;;;;2.44;80.04;98013.23;116760;1178;58717;-67
2021/10/31 01:20:18;;;;;;;26.00;16.40;;;;;;;2.40;80.49;98005.23;116869;1169;58722;-67
2021/10/31 01:23:06;;;;;;;28.80;17.30;;;;;;;2.40;79.53;98008.52;116943;1179;70600;-66
2021/10/31 01:25:52;;;;;;;32.20;18.20;;;;;;;2.38;78.83;98001.77;116765;1179;67371;-68
2021/10/31 01:28:49;;;;;;;28.90;17.20;;;;;;;2.42;79.95;98000.17;116749;1178;69255;-67
2021/10/31 01:31:36;;;;;;;30.40;18.80;;;;;;;2.48;80.38;98003.52;116811;1179;58809;-67
2021/10/31 01:34:29;;;;;;;29.20;17.70;;;;;;;2.50;81.24;98000.63;116840;1178;58756;-67
2021/10/31 01:37:02;;;;;;;28.90;17.60;;;;;;;2.49;80.91;97999.38;116761;1179;69515;-67
2021/10/31 01:39:44;;;;;;;30.20;17.60;;;;;;;2.46;80.90;97998.25;116971;1179;67735;-67
2021/10/31 01:42:40;;;;;;;26.30;16.60;;;;;;;2.42;80.12;97997.05;116884;1179;68470;-68
2021/10/31 01:45:18;;;;;;;27.00;16.90;;;;;;;2.38;80.42;97992.64;116939;1179;58762;-68
2021/10/31 01:48:05;;;;;;;29.90;15.90;;;;;;;2.34;80.66;97989.38;116910;1178;58681;-67
2021/10/31 01:50:57;;;;;;;26.30;16.70;;;;;;;2.27;80.32;97993.81;116863;1178;70967;-67
2021/10/31 01:53:36;;;;;;;30.10;17.40;;;;;;;2.23;81.44;97994.48;116775;1178;67535;-67
2021/10/31 01:56:18;;;;;;;28.80;17.80;;;;;;;2.20;81.23;97990.38;116835;1178;69259;-67
2021/10/31 01:59:08;;;;;;;29.80;16.50;;;;;;;2.14;80.98;97986.38;116999;1178;58713;-68
2021/10/31 02:01:44;;;;;;;24.40;15.80;;;;;;;2.05;81.52;97984.73;116993;1179;58733;-66
2021/10/31 02:04:17;;;;;;;22.50;14.30;;;;;;;1.93;80.95;97986.20;116939;1179;69763;-67
2021/10/31 02:06:50;;;;;;;31.50;16.20;;;;;;;1.82;81.13;97981.69;116977;1178;67426;-66
2021/10/31 02:09:22;;;;;;;27.90;15.70;;;;;;;1.73;82.21;97981.23;116919;1179;69306;-66
2021/10/31 02:11:53;;;;;;;24.60;16.20;;;;;;;1.64;81.04;97980.71;116879;1179;58736;-66
2021/10/31 02:14:25;;;;;;;27.70;15.80;;;;;;;1.56;80.61;97980.20;116965;1178;58708;-67
2021/10/31 02:16:56;;;;;;;28.70;15.30;;;;;;;1.51;80.70;97979.52;116679;1179;70584;-66
2021/10/31 02:19:40;;;;;;;28.50;16.90;;;;;;;1.47;80.28;97978.92;116968;1178;67476;-66
2021/10/31 02:22:19;;;;;;;27.40;16.90;;;;;;;1.46;81.23;97983.11;116688;1179;68522;-66
2021/10/31 02:24:48;;;;;;;28.00;17.00;;;;;;;1.47;81.93;97984.94;116970;1179;58738;-66
2021/10/31 02:27:20;;;;;;;32.50;19.30;;;;;;;1.50;82.25;97988.56;116871;1178;58750;-66
2021/10/31 02:29:55;;;;;;;29.90;17.50;;;;;;;1.55;81.04;97985.48;116652;1179;69794;-67
2021/10/31 02:32:29;;;;;;;31.50;17.90;;;;;;;1.55;81.88;97986.43;116985;1178;68253;-66
2021/10/31 02:34:59;;;;;;;22.70;14.10;;;;;;;1.49;81.24;97982.46;116681;1178;69345;-67
2021/10/31 02:37:29;;;;;;;26.50;16.20;;;;;;;1.45;83.64;97982.16;116860;1180;58726;-66
2021/10/31 02:39:59;;;;;;;25.10;14.50;;;;;;;1.38;83.60;97983.91;116918;1179;58724;-67
2021/10/31 02:42:28;;;;;;;27.20;16.30;;;;;;;1.30;83.98;97985.05;116841;1179;69706;-67
2021/10/31 02:44:58;;;;;;;24.90;15.40;;;;;;;1.20;82.51;97979.57;116845;1178;68273;-67
2021/10/31 02:47:59;;;;;;;27.40;16.30;;;;;;;1.11;81.70;97977.57;116380;1180;68286;-67
2021/10/31 02:50:37;;;;;;;27.30;15.50;;;;;;;1.02;81.95;97973.11;116850;1178;58756;-67
2021/10/31 02:53:28;;;;;;;27.10;16.40;;;;;;;0.95;82.04;97973.86;116937;1178;58745;-67
2021/10/31 02:56:06;;;;;;;;;;;;;;;0.87;81.70;97978.39;116859;1179;69790;-67
2021/10/31 02:59:00;;;;;;;27.40;15.00;;;;;;;0.81;83.24;97972.38;116879;1178;68410;-68
2021/10/31 03:01:31;;;;;;;26.50;16.60;;;;;;;0.72;82.70;97974.95;116967;1178;69287;-67
2021/10/31 03:04:01;;;;;;;27.30;14.90;;;;;;;0.67;84.72;97971.88;116886;1178;58794;-67
2021/10/31 03:06:32;;;;;;;26.00;15.50;;;;;;;0.65;86.21;97973.48;116859;1179;58682;-68
2021/10/31 03:09:02;;;;;;;33.40;16.90;;;;;;;0.62;85.31;97971.09;116943;1179;70381;-65
2021/10/31 03:11:33;;;;;;;26.90;15.40;;;;;;;0.58;84.16;97979.91;116729;1178;68369;-67
2021/10/31 03:14:04;;;;;;;28.90;17.30;;;;;;;0.55;83.13;97976.98;116806;1178;68426;-66
2021/10/31 03:16:35;;;;;;;37.10;19.20;;;;;;;0.58;83.75;97981.16;116579;1178;58812;-66
2021/10/31 03:19:05;;;;;;;32.90;18.70;;;;;;;0.61;84.29;97981.27;116785;1178;58728;-66
2021/10/31 03:21:36;;;;;;;34.50;18.50;;;;;;;0.62;84.23;97975.21;116506;1179;69993;-66
2021/10/31 03:24:05;;;;;;;28.30;17.80;;;;;;;0.56;83.65;97976.30;116540;1179;68491;-66
2021/10/31 03:26:36;;;;;;;27.90;16.60;;;;;;;0.46;82.99;97972.90;116563;1179;68481;-68
2021/10/31 03:29:05;;;;;;;26.00;14.30;;;;;;;0.34;83.73;97972.51;116394;1179;58759;-67
2021/10/31 03:31:35;;;;;;;26.60;16.20;;;;;;;0.23;83.78;97975.04;116735;1179;58747;-67
2021/10/31 03:34:05;;;;;;;32.90;18.40;;;;;;;0.18;83.37;97979.91;116600;1180;70548;-67
2021/10/31 03:36:34;;;;;;;36.60;21.60;;;;;;;0.26;84.00;97978.20;116613;1181;68327;-67
2021/10/31 03:39:05;;;;;;;40.80;21.80;;;;;;;0.37;84.22;97972.49;116658;1179;69110;-67
2021/10/31 03:41:36;;;;;;;34.80;18.70;;;;;;;0.43;85.92;97973.24;116638;1179;58800;-67
2021/10/31 03:44:06;;;;;;;37.40;19.50;;;;;;;0.41;86.66;97973.36;116714;1179;58775;-67
2021/10/31 03:46:36;;;;;;;28.50;17.10;;;;;;;0.40;86.97;97973.88;116594;1179;70127;-67
2021/10/31 03:49:06;;;;;;;26.90;15.90;;;;;;;0.36;86.70;97975.73;116646;1179;68396;-67
2021/10/31 03:51:37;;;;;;;33.70;18.00;;;;;;;0.35;87.60;97979.38;116545;1179;68436;-66
2021/10/31 03:54:06;;;;;;;32.80;18.60;;;;;;;0.30;86.95;97984.97;116360;1179;58815;-67
2021/10/31 03:56:37;;;;;;;29.10;18.70;;;;;;;0.27;86.19;97984.13;116521;1179;58735;-67
2021/10/31 03:59:07;;;;;;;29.60;18.50;;;;;;;0.27;84.80;97984.60;116674;1179;70594;-67
2021/10/31 04:01:37;;;;;;;33.40;18.60;;;;;;;0.23;84.72;97983.67;116648;1179;67961;-67
2021/10/31 04:04:08;;;;;;;32.60;16.80;;;;;;;0.19;84.76;97982.35;116691;1179;68757;-67
2021/10/31 04:06:38;;;;;;;30.60;17.10;;;;;;;0.12;84.47;97979.09;116684;1180;58772;-67
2021/10/31 04:09:07;;;;;;;33.20;18.70;;;;;;;0.07;83.95;97977.73;116722;1179;58734;-67
2021/10/31 04:11:37;;;;;;;29.80;16.90;;;;;;;0.02;84.25;97973.29;116641;1179;70622;-67
2021/10/31 04:14:06;;;;;;;27.20;16.80;;;;;;;-0.03;84.45;97971.77;116672;1179;68197;-67
2021/10/31 04:16:35;;;;;;;27.60;16.80;;;;;;;-0.08;83.90;97969.24;116688;1179;69320;-67
2021/10/31 04:19:06;;;;;;;29.70;17.30;;;;;;;-0.12;83.88;97968.94;116666;1179;58740;-67
2021/10/31 04:21:35;;;;;;;30.70;17.50;;;;;;;-0.18;83.64;97964.15;116669;1179;58782;-67
2021/10/31 04:24:04;;;;;;;31.00;17.70;;;;;;;-0.25;83.59;97962.12;116733;1179;70763;-67
2021/10/31 04:26:34;;;;;;;30.00;16.50;;;;;;;-0.31;83.97;97961.00;116644;1179;67710;-68
2021/10/31 04:29:03;;;;;;;31.50;17.10;;;;;;;-0.35;84.48;97954.79;116716;1179;69024;-68
2021/10/31 04:31:33;;;;;;;34.30;17.80;;;;;;;-0.37;83.72;97954.34;116796;1179;58759;-68
2021/10/31 04:34:02;;;;;;;31.80;17.90;;;;;;;-0.38;84.00;97951.64;116682;1179;58742;-68
2021/10/31 04:36:31;;;;;;;30.90;17.70;;;;;;;-0.39;84.06;97954.36;116630;1179;70535;-67
2021/10/31 04:39:00;;;;;;;29.00;16.30;;;;;;;-0.41;85.10;97949.89;116729;1179;67549;-68
2021/10/31 04:41:31;;;;;;;33.10;18.00;;;;;;;-0.44;84.97;97948.50;116595;1180;69842;-68
2021/10/31 04:44:00;;;;;;;26.30;15.30;;;;;;;-0.50;84.72;97945.03;116724;1179;58702;-66
2021/10/31 04:46:31;;;;;;;27.50;15.30;;;;;;;-0.57;85.26;97947.34;116509;1180;58695;-67
2021/10/31 04:49:01;;;;;;;30.70;18.00;;;;;;;-0.64;85.07;97943.09;116574;1179;70432;-67
2021/10/31 04:51:30;;;;;;;21.90;13.00;;;;;;;-0.69;84.51;97944.06;116382;1180;66726;-68
2021/10/31 04:54:00;;;;;;;31.70;16.80;;;;;;;-0.72;85.78;97942.19;116443;1179;68251;-67
2021/10/31 04:56:29;;;;;;;29.30;16.80;;;;;;;-0.77;83.99;97945.40;116399;1180;58732;-67
2021/10/31 04:58:59;;;;;;;30.70;18.60;;;;;;;-0.82;83.96;97946.45;116462;1179;58743;-66
2021/10/31 05:01:28;;;;;;;34.80;20.80;;;;;;;-0.88;83.31;97945.71;116426;1179;70630;-66
2021/10/31 05:03:58;;;;;;;32.60;19.00;;;;;;;-0.94;83.84;97942.30;116650;1180;68425;-66
2021/10/31 05:06:27;;;;;;;35.30;19.80;;;;;;;-1.01;84.07;97944.16;116603;1179;68470;-67
2021/10/31 05:08:56;;;;;;;34.80;19.20;;;;;;;-1.07;84.16;97939.95;116621;1181;58757;-67
2021/10/31 05:11:25;;;;;;;30.10;18.20;;;;;;;-1.11;84.22;97937.60;116663;1179;58735;-67
2021/10/31 05:13:55;;;;;;;32.80;18.40;;;;;;;-1.14;84.36;97937.08;116638;1179;70703;-67
2021/10/31 05:16:24;;;;;;;31.60;17.40;;;;;;;-1.16;84.09;97931.27;116598;1180;68665;-67
2021/10/31 05:18:55;;;;;;;29.20;16.10;;;;;;;-1.17;85.27;97932.48;116645;1179;68546;-67
2021/10/31 05:21:24;;;;;;;34.90;18.50;;;;;;;-1.14;86.83;97931.78;116811;1178;58692;-67
2021/10/31 05:23:53;;;;;;;30.70;17.40;;;;;;;-1.09;87.93;97927.48;116819;1179;58730;-67
2021/10/31 05:26:24;;;;;;;31.30;17.10;;;;;;;-1.05;88.30;97925.50;116939;1179;69991;-67
2021/10/31 05:28:55;;;;;;;34.30;20.30;;;;;;;-1.01;88.43;97927.69;116954;1178;68241;-67
2021/10/31 05:31:24;;;;;;;38.40;19.90;;;;;;;-0.98;87.54;97929.69;116899;1178;68566;-67
2021/10/31 05:33:53;;;;;;;40.60;21.00;;;;;;;-0.94;86.50;97928.23;116859;1179;58785;-67
2021/10/31 05:36:22;;;;;;;47.30;24.20;;;;;;;-0.88;85.48;97932.04;116893;1178;58673;-66
2021/10/31 05:38:51;;;;;;;39.70;20.60;;;;;;;-0.80;85.70;97934.93;116869;1178;70606;-65
2021/10/31 05:41:20;;;;;;;35.80;20.10;;;;;;;-0.75;85.47;97932.33;116737;1179;68491;-67
2021/10/31 05:43:49;;;;;;;32.80;18.70;;;;;;;-0.72;85.83;97938.08;116910;1179;69279;-67
2021/10/31 05:46:18;;;;;;;32.40;18.50;;;;;;;-0.70;85.90;97942.09;116916;1179;59223;-66
2021/10/31 05:48:47;;;;;;;28.70;17.20;;;;;;;-0.69;85.14;97944.21;116887;1179;58759;-66
2021/10/31 05:51:16;;;;;;;32.80;16.90;;;;;;;-0.66;85.01;97950.34;116890;1180;69817;-67
2021/10/31 05:53:45;;;;;;;32.80;18.80;;;;;;;-0.64;84.74;97945.96;116902;1180;68577;-66
2021/10/31 05:56:15;;;;;;;29.10;18.20;;;;;;;-0.65;84.32;97949.90;116921;1179;69406;-66
2021/10/31 05:58:44;;;;;;;24.20;14.70;;;;;;;-0.65;84.41;97950.67;116966;1178;58756;-66
2021/10/31 06:01:13;;;;;;;29.40;14.70;;;;;;;-0.63;84.85;97952.27;116892;1178;58739;-66
2021/10/31 06:03:42;;;;;;;30.00;17.50;;;;;;;-0.57;85.04;97952.95;116918;1178;71734;-66
2021/10/31 06:06:11;;;;;;;30.30;17.20;;;;;;;-0.51;84.88;97955.48;116968;1178;68246;-66
2021/10/31 06:08:40;;;;;;;26.00;15.80;;;;;;;-0.39;84.90;97956.70;116942;1178;69246;-66
2021/10/31 06:11:08;;;;;;;27.50;16.20;;;;;;;-0.23;84.92;97958.27;116941;1178;58723;-66
2021/10/31 06:13:38;;;;;;;24.30;15.70;;;;;;;-0.05;85.06;97957.41;116879;1179;58749;-66
2021/10/31 06:16:08;;;;;;;24.10;13.00;;;;;;;0.18;84.98;97962.55;116954;1180;69064;-67
2021/10/31 06:18:37;;;;;;;25.30;11.50;;;;;;;0.58;84.08;97963.94;116890;1179;68445;-66
2021/10/31 06:21:06;;;;;;;21.00;13.10;;;;;;;1.02;83.16;97965.80;116918;1178;69100;-67
2021/10/31 06:23:35;;;;;;;25.10;13.20;;;;;;;1.47;82.25;97965.49;116961;1178;58814;-66
2021/10/31 06:26:04;;;;;;;23.40;13.80;;;;;;;1.98;81.64;97970.73;116669;1178;58801;-66
2021/10/31 06:28:33;;;;;;;22.80;13.40;;;;;;;2.58;80.32;97972.61;116951;1178;71235;-67
2021/10/31 06:31:03;;;;;;;18.90;12.20;;;;;;;3.05;78.01;97973.00;116940;1179;68803;-67
2021/10/31 06:33:33;;;;;;;20.10;13.50;;;;;;;3.50;76.86;97976.72;116840;1179;69286;-67
2021/10/31 06:36:02;;;;;;;45.80;28.60;;;;;;;4.03;75.59;97986.99;116885;1180;58747;-67
2021/10/31 06:38:31;;;;;;;48.50;32.20;;;;;;;4.61;74.56;97985.45;116899;1179;58796;-67
2021/10/31 06:40:59;;;;;;;48.50;31.70;;;;;;;5.16;72.65;97979.98;116914;1179;70645;-67
2021/10/31 06:43:29;;;;;;;35.50;25.20;;;;;;;5.70;71.55;97981.77;116938;1179;68671;-67
2021/10/31 06:45:57;;;;;;;38.90;23.70;;;;;;;6.29;69.85;97980.41;116888;1179;69816;-67
2021/10/31 06:48:26;;;;;;;29.40;20.80;;;;;;;6.81;65.31;97978.91;116892;1179;58732;-67
2021/10/31 06:50:56;;;;;;;30.60;20.60;;;;;;;7.32;63.99;97979.59;116893;1170;58747;-67
2021/10/31 06:53:25;;;;;;;32.10;21.60;;;;;;;7.93;65.26;97984.17;116648;1179;70556;-67
2021/10/31 06:55:54;;;;;;;35.30;24.40;;;;;;;8.31;61.81;97983.79;116655;1170;68384;-68
2021/10/31 06:58:23;;;;;;;28.60;19.10;;;;;;;8.73;61.08;97983.27;116888;1178;68015;-67
2021/10/31 07:00:52;;;;;;;25.00;17.20;;;;;;;8.98;59.89;97982.95;116915;1179;58758;-68
2021/10/31 07:03:21;;;;;;;26.60;18.40;;;;;;;9.30;59.00;97984.60;116851;1178;58791;-68
2021/10/31 07:05:52;;;;;;;29.60;21.20;;;;;;;9.65;59.09;97985.92;116881;1179;70640;-68
2021/10/31 07:08:21;;;;;;;;;;;;;;;9.99;56.45;97979.48;116880;1179;67904;-68
2021/10/31 07:10:49;;;;;;;28.80;20.50;;;;;;;10.23;54.84;97979.38;116686;1179;69653;-68
2021/10/31 07:13:18;;;;;;;39.70;25.90;;;;;;;10.54;53.86;97980.90;116920;1178;58738;-67
2021/10/31 07:15:47;;;;;;;32.70;21.50;;;;;;;11.04;52.78;97975.88;116723;1179;58671;-68
2021/10/31 07:18:16;;;;;;;37.00;25.60;;;;;;;11.40;52.27;97981.87;116902;1178;70702;-68
2021/10/31 07:20:45;;;;;;;37.10;23.70;;;;;;;11.28;49.60;97974.79;116971;1179;67701;-68
2021/10/31 07:23:13;;;;;;;32.50;23.00;;;;;;;11.09;50.43;97973.30;116946;1179;69929;-68
2021/10/31 07:25:42;;;;;;;29.10;19.60;;;;;;;11.81;49.66;97968.27;116886;1180;58733;-68
2021/10/31 07:28:11;;;;;;;27.10;18.90;;;;;;;12.19;49.80;97964.10;116906;1178;58656;-69
2021/10/31 07:30:40;;;;;;;37.20;24.80;;;;;;;12.64;49.09;97966.71;116839;1178;70399;-68
2021/10/31 07:33:09;;;;;;;44.30;30.60;;;;;;;13.03;47.46;97961.61;116857;1180;68113;-69
2021/10/31 07:35:39;;;;;;;44.10;28.40;;;;;;;13.06;46.66;97954.89;116904;1178;68268;-69
2021/10/31 07:38:08;;;;;;;74.40;43.00;;;;;;;13.34;45.59;97955.55;116891;1179;58745;-69
2021/10/31 07:40:37;;;;;;;62.30;36.10;;;;;;;13.73;45.19;97951.84;116899;1179;58749;-69
2021/10/31 07:43:07;;;;;;;34.80;25.00;;;;;;;13.54;44.53;97957.07;116830;1179;70593;-68
2021/10/31 07:45:40;;;;;;;32.10;21.30;;;;;;;14.14;44.37;97949.70;116879;1178;67810;-68
2021/10/31 07:48:10;;;;;;;31.20;18.40;;;;;;;14.09;43.46;97945.75;116858;1174;69387;-68
2021/10/31 07:50:39;;;;;;;22.50;15.80;;;;;;;13.79;43.70;97943.52;116833;1179;58820;-67
2021/10/31 07:53:11;;;;;;;21.00;16.10;;;;;;;14.13;43.43;97942.81;116925;1178;58721;-68
2021/10/31 07:55:43;;;;;;;20.80;15.10;;;;;;;14.35;43.30;97942.97;116909;1178;71152;-68
2021/10/31 07:58:15;;;;;;;20.30;13.90;;;;;;;14.48;42.17;97941.55;116713;1179;69103;-68
2021/10/31 08:00:44;;;;;;;18.10;13.50;;;;;;;15.02;40.57;97936.17;116893;1178;69384;-68
2021/10/31 08:03:13;;;;;;;18.50;13.40;;;;;;;15.04;40.05;97931.96;116825;1179;59199;-68
2021/10/31 08:05:43;;;;;;;20.80;14.40;;;;;;;15.39;39.00;97930.75;116915;1178;58724;-67
2021/10/31 08:08:12;;;;;;;25.20;15.70;;;;;;;16.23;39.65;97928.86;116848;1179;71243;-68
2021/10/31 08:10:44;;;;;;;20.00;14.20;;;;;;;17.20;37.94;97931.83;116558;1181;68996;-68
2021/10/31 08:13:23;;;;;;;18.80;14.50;;;;;;;17.06;36.54;97924.39;116705;1179;69228;-68
2021/10/31 08:15:54;;;;;;;20.30;14.80;;;;;;;17.05;37.22;97924.20;116633;1181;58753;-68
2021/10/31 08:18:23;;;;;;;17.20;12.80;;;;;;;17.29;36.43;97925.29;116903;1178;58707;-68
2021/10/31 08:20:53;;;;;;;20.00;14.70;;;;;;;17.13;36.87;97920.07;116890;1178;70839;-68
2021/10/31 08:23:22;;;;;;;17.20;12.30;;;;;;;17.33;35.69;97916.00;116733;1179;68419;-68
2021/10/31 08:25:52;;;;;;;23.90;12.70;;;;;;;17.35;36.54;97917.33;117024;1179;69300;-68
2021/10/31 08:28:21;;;;;;;19.00;12.90;;;;;;;17.67;35.56;97916.64;116634;1179;58727;-68
2021/10/31 08:30:57;;;;;;;22.50;13.70;;;;;;;18.25;35.10;97909.52;116819;1180;58726;-68
2021/10/31 08:33:32;;;;;;;22.90;16.00;;;;;;;17.99;34.43;97906.54;116925;1179;71185;-68
2021/10/31 08:36:06;;;;;;;39.70;25.60;;;;;;;18.43;33.88;97903.95;116951;1179;69014;-68
2021/10/31 08:38:34;;;;;;;18.90;14.20;;;;;;;19.04;32.80;97898.73;116914;1179;69933;-68
2021/10/31 08:41:04;;;;;;;25.30;13.50;;;;;;;18.75;32.19;97899.71;116944;1179;58802;-68
2021/10/31 08:43:32;;;;;;;13.90;10.80;;;;;;;18.21;33.12;97901.73;116900;1179;58736;-68
2021/10/31 08:46:02;;;;;;;17.30;11.70;;;;;;;18.60;33.31;97897.16;116647;1180;69839;-68
2021/10/31 08:48:34;;;;;;;18.50;11.10;;;;;;;18.83;32.17;97893.70;116891;1178;68996;-68
2021/10/31 08:51:03;;;;;;;18.30;11.60;;;;;;;19.47;31.38;97890.71;116841;1174;68396;-68
2021/10/31 08:53:34;;;;;;;15.40;11.10;;;;;;;19.45;31.31;97887.05;116827;1179;58683;-67
2021/10/31 08:56:05;;;;;;;13.30;10.40;;;;;;;19.43;31.40;97888.97;116881;1177;58748;-69
2021/10/31 08:58:34;;;;;;;15.50;10.90;;;;;;;19.18;32.17;97886.86;116954;1178;70603;-67
2021/10/31 09:01:03;;;;;;;15.40;11.30;;;;;;;19.80;30.91;97886.75;116891;1178;67776;-69
2021/10/31 09:03:33;;;;;;;16.90;11.10;;;;;;;19.98;30.75;97878.82;116900;1178;68707;-69
2021/10/31 09:06:02;;;;;;;17.00;11.20;;;;;;;20.09;30.37;97880.11;116864;1179;58760;-69
2021/10/31 09:08:30;;;;;;;14.50;10.80;;;;;;;20.42;29.78;97880.99;116899;1179;58738;-69
2021/10/31 09:10:59;;;;;;;13.70;10.90;;;;;;;20.61;29.58;97877.80;116642;1180;68817;-68
2021/10/31 09:13:29;;;;;;;15.80;13.00;;;;;;;19.80;30.36;97872.23;116908;1179;67848;-68
2021/10/31 09:15:58;;;;;;;15.60;11.90;;;;;;;20.87;28.77;97870.73;116818;1179;68524;-69
2021/10/31 09:18:27;;;;;;;17.30;12.00;;;;;;;20.73;28.92;97869.83;116787;1178;58674;-68
2021/10/31 09:20:57;;;;;;;15.10;10.80;;;;;;;20.20;29.27;97862.50;116915;1179;58747;-68
2021/10/31 09:23:26;;;;;;;16.80;11.50;;;;;;;19.43;30.14;97857.77;116939;1179;71195;-68
2021/10/31 09:25:55;;;;;;;17.80;11.70;;;;;;;18.80;31.33;97857.25;116853;1178;68557;-68
2021/10/31 09:28:23;;;;;;;16.60;11.10;;;;;;;19.54;31.39;97851.46;116829;1178;68653;-68
2021/10/31 09:30:53;;;;;;;15.30;10.50;;;;;;;19.99;30.16;97846.48;116883;1178;58710;-68
2021/10/31 09:33:22;;;;;;;17.90;11.60;;;;;;;20.95;29.22;97847.14;116902;1179;58745;-68
2021/10/31 09:35:55;;;;;;;16.40;11.00;;;;;;;21.47;28.01;97843.44;116914;1179;70125;-68
2021/10/31 09:38:26;;;;;;;14.30;10.70;;;;;;;21.58;27.66;97840.95;116656;1179;68422;-68
2021/10/31 09:40:56;;;;;;;17.70;11.60;;;;;;;22.33;26.77;97835.14;116923;1178;69405;-68
2021/10/31 09:43:28;;;;;;;13.60;11.20;;;;;;;22.50;25.62;97829.63;116886;1178;58743;-69
2021/10/31 09:45:59;;;;;;;16.90;11.60;;;;;;;22.77;25.71;97820.82;116885;1178;58750;-68
2021/10/31 09:48:32;;;;;;;16.30;11.00;;;;;;;22.64;26.32;97819.14;116903;1180;70686;-69
2021/10/31 09:51:01;;;;;;;15.40;10.60;;;;;;;23.44;25.74;97814.38;116938;1176;68654;-69
2021/10/31 09:53:31;;;;;;;13.40;10.30;;;;;;;24.09;23.97;97809.29;116966;1179;68773;-70
2021/10/31 09:56:00;;;;;;;17.40;11.20;;;;;;;24.33;23.50;97813.42;116854;1179;58752;-70
2021/10/31 09:58:37;;;;;;;17.20;10.60;;;;;;;24.24;23.02;97809.61;116712;1179;58748;-69
2021/10/31 10:01:30;;;;;;;14.30;10.10;;;;;;;24.08;22.96;97802.29;116857;1178;70646;-69
2021/10/31 10:03:59;;;;;;;16.00;10.70;;;;;;;23.88;23.14;97795.77;116952;1179;67959;-69
2021/10/31 10:06:28;;;;;;;15.10;11.00;;;;;;;22.86;23.98;97797.55;116901;1180;69618;-69
2021/10/31 10:09:07;;;;;;;16.90;11.40;;;;;;;23.22;23.56;97794.25;116648;1180;58747;-69
2021/10/31 10:11:44;;;;;;;15.20;11.60;;;;;;;22.99;24.59;97786.89;116878;1178;58792;-69
2021/10/31 10:14:24;;;;;;;15.50;11.20;;;;;;;23.55;24.79;97784.95;116873;1179;71457;-70
2021/10/31 10:17:00;;;;;;;19.50;11.80;;;;;;;24.74;23.82;97774.65;116890;1178;68587;-70
2021/10/31 10:19:44;;;;;;;16.10;11.90;;;;;;;24.89;22.84;97777.89;116806;1179;68677;-69
2021/10/31 10:22:17;;;;;;;13.70;11.10;;;;;;;25.68;22.41;97774.21;116860;1178;58723;-70
2021/10/31 10:24:49;;;;;;;14.40;11.50;;;;;;;25.91;22.03;97774.11;116804;1179;58987;-70
2021/10/31 10:27:18;;;;;;;15.30;11.20;;;;;;;25.77;22.08;97770.09;116862;1179;70537;-70
2021/10/31 10:29:47;;;;;;;15.90;11.10;;;;;;;25.45;22.38;97759.48;116876;1179;68985;-70
2021/10/31 10:32:19;;;;;;;14.60;11.60;;;;;;;24.51;23.18;97756.89;116917;1179;68608;-70
2021/10/31 10:34:53;;;;;;;16.30;11.80;;;;;;;24.68;23.44;97756.95;116953;1178;58827;-70
2021/10/31 10:37:26;;;;;;;17.40;12.20;;;;;;;24.20;23.47;97749.20;116987;1178;58689;-70
2021/10/31 10:40:03;;;;;;;16.40;12.20;;;;;;;24.61;22.85;97749.38;116929;1179;69802;-70
2021/10/31 10:42:36;;;;;;;15.50;12.00;;;;;;;24.50;22.49;97743.01;116815;1178;69018;-70
2021/10/31 10:45:12;;;;;;;18.50;11.70;;;;;;;25.26;21.76;97737.45;116885;1179;69233;-70
2021/10/31 10:47:48;;;;;;;16.20;11.80;;;;;;;25.54;21.42;97734.48;116896;1178;58747;-69
2021/10/31 10:50:29;;;;;;;17.70;13.40;;;;;;;24.92;21.77;97727.55;116667;1179;58705;-69
2021/10/31 10:52:57;;;;;;;15.40;13.00;;;;;;;24.11;22.51;97726.38;116792;1180;70661;-69
2021/10/31 10:55:28;;;;;;;15.80;12.70;;;;;;;23.17;23.56;97721.71;116835;1178;68961;-69
2021/10/31 10:58:08;;;;;;;15.40;12.90;;;;;;;24.04;22.63;97718.19;116660;1180;68774;-68
2021/10/31 11:00:42;;;;;;;16.60;12.50;;;;;;;23.08;23.82;97711.85;116693;1179;58743;-68
2021/10/31 11:03:18;;;;;;;14.70;11.30;;;;;;;23.06;23.75;97714.08;116805;1179;58740;-69
2021/10/31 11:06:00;;;;;;;14.20;11.50;;;;;;;23.50;22.88;97710.09;116609;1181;70678;-69
2021/10/31 11:08:30;;;;;;;16.00;12.30;;;;;;;23.65;22.71;97702.38;116913;1179;68550;-70
2021/10/31 11:11:02;;;;;;;;;;;;;;;24.54;21.90;97702.37;116827;1179;69083;-69
2021/10/31 11:13:44;;;;;;;16.40;12.40;;;;;;;24.69;21.78;97698.52;116995;1179;58732;-68
2021/10/31 11:16:13;;;;;;;15.90;11.50;;;;;;;24.65;21.67;97698.70;116866;1179;58727;-68
2021/10/31 11:18:45;;;;;;;16.20;12.30;;;;;;;24.66;21.31;97692.97;116632;1178;69638;-68
2021/10/31 11:21:14;;;;;;;18.00;12.90;;;;;;;24.67;21.38;97694.01;116950;1179;68331;-69
2021/10/31 11:23:47;;;;;;;17.00;12.60;;;;;;;23.71;22.09;97689.33;116688;1180;69822;-68
2021/10/31 11:26:23;;;;;;;15.00;11.20;;;;;;;23.91;22.52;97685.60;116630;1179;58782;-69
2021/10/31 11:28:53;;;;;;;15.20;11.40;;;;;;;24.38;22.14;97678.52;116904;1179;58735;-68
2021/10/31 11:31:23;;;;;;;18.50;11.30;;;;;;;25.06;20.90;97681.10;116917;1180;71216;-69
2021/10/31 11:33:53;;;;;;;17.90;11.20;;;;;;;24.83;20.86;97679.34;116848;1174;69016;-69
2021/10/31 11:36:23;;;;;;;14.30;10.90;;;;;;;24.98;20.60;97673.36;116811;1180;69235;-68